createdAt,value
2022-11-02T00:01:20.436Z,11.39
2022-11-02T00:03:48.521Z,11.35
2022-11-02T00:06:15.456Z,11.32
2022-11-02T00:08:42.605Z,11.30
2022-11-02T00:11:10.361Z,11.28
2022-11-02T00:13:38.392Z,11.28
2022-11-02T00:16:14.844Z,11.27
2022-11-02T00:18:45.254Z,11.25
2022-11-02T00:21:13.167Z,11.21
2022-11-02T00:23:41.557Z,11.20
2022-11-02T00:26:10.548Z,11.19
2022-11-02T00:28:38.828Z,11.17
2022-11-02T00:31:06.608Z,11.16
2022-11-02T00:33:33.732Z,11.16
2022-11-02T00:36:00.442Z,11.16
2022-11-02T00:38:28.111Z,11.15
2022-11-02T00:41:02.969Z,11.14
2022-11-02T00:43:29.997Z,11.09
2022-11-02T00:46:03.570Z,11.07
2022-11-02T00:48:32.323Z,11.05
2022-11-02T00:50:59.593Z,11.04
2022-11-02T00:53:30.650Z,11.04
2022-11-02T00:55:58.557Z,11.04
2022-11-02T00:58:25.770Z,11.04
2022-11-02T01:00:52.497Z,11.03
2022-11-02T01:03:19.171Z,11.01
2022-11-02T01:05:47.944Z,10.99
2022-11-02T01:08:15.427Z,10.98
2022-11-02T01:10:48.150Z,10.97
2022-11-02T01:13:18.917Z,10.97
2022-11-02T01:15:46.139Z,10.97
2022-11-02T01:18:13.089Z,10.97
2022-11-02T01:20:40.839Z,10.98
2022-11-02T01:23:08.255Z,10.98
2022-11-02T01:25:35.617Z,10.96
2022-11-02T01:28:03.420Z,10.96
2022-11-02T01:30:30.683Z,10.95
2022-11-02T01:33:01.465Z,10.96
2022-11-02T01:35:29.397Z,10.98
2022-11-02T01:37:59.180Z,11.01
2022-11-02T01:40:26.887Z,11.03
2022-11-02T01:42:54.084Z,11.05
2022-11-02T01:45:20.787Z,11.06
2022-11-02T01:47:50.195Z,11.07
2022-11-02T01:50:23.284Z,11.09
2022-11-02T01:52:50.029Z,11.13
2022-11-02T01:55:23.090Z,11.14
2022-11-02T01:57:57.423Z,11.18
2022-11-02T02:00:28.739Z,11.21
2022-11-02T02:03:01.842Z,11.20
2022-11-02T02:05:30.927Z,11.16
2022-11-02T02:08:01.216Z,11.12
2022-11-02T02:10:28.591Z,11.08
2022-11-02T02:12:57.850Z,11.05
2022-11-02T02:15:36.180Z,11.01
2022-11-02T02:18:14.778Z,10.99
2022-11-02T02:20:44.402Z,10.95
2022-11-02T02:23:27.291Z,10.91
2022-11-02T02:26:09.932Z,10.86
2022-11-02T02:28:54.722Z,10.81
2022-11-02T02:31:31.706Z,10.76
2022-11-02T02:34:07.159Z,10.73
2022-11-02T02:36:47.794Z,10.71
2022-11-02T02:39:31.543Z,10.66
2022-11-02T02:42:11.751Z,10.60
2022-11-02T02:44:47.250Z,10.55
2022-11-02T02:47:19.510Z,10.51
2022-11-02T02:49:54.737Z,10.49
2022-11-02T02:52:24.613Z,10.47
2022-11-02T02:54:55.966Z,10.45
2022-11-02T02:57:26.898Z,10.44
2022-11-02T02:59:55.619Z,10.41
2022-11-02T03:02:27.923Z,10.38
2022-11-02T03:04:54.729Z,10.35
2022-11-02T03:07:31.207Z,10.32
2022-11-02T03:10:26.078Z,10.30
2022-11-02T03:13:23.134Z,10.28
2022-11-02T03:15:59.912Z,10.28
2022-11-02T03:18:39.575Z,10.26
2022-11-02T03:21:17.150Z,10.24
2022-11-02T03:23:56.304Z,10.23
2022-11-02T03:26:30.258Z,10.24
2022-11-02T03:29:05.290Z,10.26
2022-11-02T03:31:59.195Z,10.27
2022-11-02T03:34:35.380Z,10.30
2022-11-02T03:37:15.419Z,10.33
2022-11-02T03:39:47.720Z,10.37
2022-11-02T03:42:19.199Z,10.38
2022-11-02T03:44:53.911Z,10.37
2022-11-02T03:47:21.897Z,10.33
2022-11-02T03:49:52.124Z,10.27
2022-11-02T03:52:28.613Z,10.21
2022-11-02T03:55:05.960Z,10.14
2022-11-02T03:57:41.475Z,10.12
2022-11-02T04:00:09.838Z,10.12
2022-11-02T04:02:46.235Z,10.12
2022-11-02T04:05:14.039Z,10.13
2022-11-02T04:08:04.638Z,10.10
2022-11-02T04:10:32.121Z,10.09
2022-11-02T04:13:15.208Z,10.07
2022-11-02T04:15:43.642Z,10.07
2022-11-02T04:18:26.776Z,10.09
2022-11-02T04:20:53.985Z,10.08
2022-11-02T04:23:36.491Z,10.04
2022-11-02T04:26:05.701Z,10.00
2022-11-02T04:28:39.102Z,9.96
2022-11-02T04:31:06.422Z,9.92
2022-11-02T04:33:37.555Z,9.88
2022-11-02T04:36:08.252Z,9.84
2022-11-02T04:38:43.555Z,9.78
2022-11-02T04:41:34.729Z,9.67
2022-11-02T04:44:04.667Z,9.57
2022-11-02T04:46:34.264Z,9.54
2022-11-02T04:49:03.647Z,9.55
2022-11-02T04:51:32.863Z,9.57
2022-11-02T04:54:02.090Z,9.59
2022-11-02T04:56:30.172Z,9.63
2022-11-02T04:59:00.372Z,9.68
2022-11-02T05:01:30.410Z,9.73
2022-11-02T05:03:58.768Z,9.73
2022-11-02T05:06:26.790Z,9.75
2022-11-02T05:08:54.157Z,9.71
2022-11-02T05:11:21.563Z,9.68
2022-11-02T05:13:49.637Z,9.64
2022-11-02T05:16:19.302Z,9.60
2022-11-02T05:18:48.719Z,9.59
2022-11-02T05:21:16.199Z,9.60
2022-11-02T05:23:45.470Z,9.61
2022-11-02T05:26:12.672Z,9.61
2022-11-02T05:28:43.620Z,9.60
2022-11-02T05:31:12.625Z,9.58
2022-11-02T05:33:40.373Z,9.55
2022-11-02T05:36:13.781Z,9.53
2022-11-02T05:38:47.774Z,9.53
2022-11-02T05:41:15.559Z,9.54
2022-11-02T05:43:42.853Z,9.55
2022-11-02T05:46:11.626Z,9.56
2022-11-02T05:48:38.728Z,9.55
2022-11-02T05:51:05.548Z,9.52
2022-11-02T05:53:34.241Z,9.51
2022-11-02T05:56:02.514Z,9.51
2022-11-02T05:58:29.868Z,9.54
2022-11-02T06:01:01.078Z,9.59
2022-11-02T06:03:28.191Z,9.63
2022-11-02T06:05:58.665Z,9.68
2022-11-02T06:08:26.063Z,9.76
2022-11-02T06:10:53.265Z,9.83
2022-11-02T06:13:20.331Z,9.90
2022-11-02T06:15:47.163Z,9.93
2022-11-02T06:18:13.906Z,9.93
2022-11-02T06:20:41.250Z,10.00
2022-11-02T06:23:08.397Z,10.07
2022-11-02T06:25:35.737Z,10.12
2022-11-02T06:28:05.514Z,10.17
2022-11-02T06:30:34.904Z,10.25
2022-11-02T06:33:06.943Z,10.33
2022-11-02T06:35:35.193Z,10.38
2022-11-02T06:38:03.259Z,10.41
2022-11-02T06:40:29.994Z,10.43
2022-11-02T06:43:15.277Z,10.48
2022-11-02T06:45:47.784Z,10.52
2022-11-02T06:48:15.022Z,10.56
2022-11-02T06:50:42.343Z,10.64
2022-11-02T06:53:09.042Z,10.71
2022-11-02T06:55:35.895Z,10.84
2022-11-02T06:58:05.423Z,10.91
2022-11-02T07:00:32.469Z,10.94
2022-11-02T07:03:01.539Z,10.96
2022-11-02T07:05:30.245Z,10.94
2022-11-02T07:07:58.958Z,10.97
2022-11-02T07:10:26.822Z,11.04
2022-11-02T07:12:56.898Z,11.10
2022-11-02T07:15:35.650Z,11.13
2022-11-02T07:18:02.507Z,11.14
2022-11-02T07:20:31.817Z,11.16
2022-11-02T07:23:04.610Z,11.17
2022-11-02T07:25:33.471Z,11.18
2022-11-02T07:28:11.376Z,11.24
2022-11-02T07:30:38.246Z,11.35
2022-11-02T07:33:05.334Z,11.43
2022-11-02T07:35:36.497Z,11.42
2022-11-02T07:38:05.880Z,11.38
2022-11-02T07:40:35.032Z,11.41
2022-11-02T07:43:07.685Z,11.46
2022-11-02T07:45:50.906Z,11.52
2022-11-02T07:48:18.487Z,11.52
2022-11-02T07:50:47.325Z,11.57
2022-11-02T07:53:16.354Z,11.65
2022-11-02T07:55:45.684Z,11.83
2022-11-02T07:58:14.272Z,11.97
2022-11-02T08:00:42.171Z,12.12
2022-11-02T08:03:14.514Z,12.18
2022-11-02T08:05:43.668Z,12.30
2022-11-02T08:08:15.802Z,12.42
2022-11-02T08:10:44.872Z,12.56
2022-11-02T08:13:15.359Z,12.64
2022-11-02T08:15:42.307Z,12.69
2022-11-02T08:18:14.666Z,12.74
2022-11-02T08:20:43.218Z,12.81
2022-11-02T08:23:11.345Z,12.86
2022-11-02T08:25:42.015Z,12.96
2022-11-02T08:28:14.923Z,13.05
2022-11-02T08:30:42.102Z,13.09
2022-11-02T08:33:14.907Z,13.11
2022-11-02T08:35:43.765Z,13.12
2022-11-02T08:38:11.033Z,13.18
2022-11-02T08:40:39.617Z,13.28
2022-11-02T08:43:09.405Z,13.51
2022-11-02T08:46:12.837Z,13.80
2022-11-02T08:48:27.360Z,14.13
2022-11-02T08:50:55.754Z,14.44
2022-11-02T08:53:22.524Z,14.83
2022-11-02T08:55:50.784Z,15.15
2022-11-02T08:58:18.727Z,15.49
2022-11-02T09:00:45.685Z,15.84
2022-11-02T09:03:19.537Z,16.13
2022-11-02T09:05:50.936Z,16.36
2022-11-02T09:08:19.717Z,16.51
2022-11-02T09:10:49.475Z,16.60
2022-11-02T09:13:21.092Z,16.77
2022-11-02T09:15:53.383Z,16.89
2022-11-02T09:18:20.630Z,17.01
2022-11-02T09:20:51.552Z,17.09
2022-11-02T09:23:21.603Z,17.08
2022-11-02T09:25:50.082Z,17.07
2022-11-02T09:28:16.877Z,16.93
2022-11-02T09:30:43.674Z,16.76
2022-11-02T09:33:11.378Z,16.65
2022-11-02T09:35:42.372Z,16.62
2022-11-02T09:38:13.800Z,16.65
2022-11-02T09:40:46.151Z,16.74
2022-11-02T09:43:21.357Z,16.76
2022-11-02T09:45:51.592Z,16.75
2022-11-02T09:48:28.607Z,16.71
2022-11-02T09:51:09.099Z,16.85
2022-11-02T09:53:42.441Z,17.03
2022-11-02T09:56:11.214Z,17.15
2022-11-02T09:58:40.702Z,17.10
2022-11-02T10:01:19.565Z,17.06
2022-11-02T10:04:10.855Z,17.01
2022-11-02T10:06:43.067Z,16.93
2022-11-02T10:09:30.321Z,16.85
2022-11-02T10:12:08.556Z,16.78
2022-11-02T10:14:39.918Z,16.73
2022-11-02T10:17:10.125Z,16.76
2022-11-02T10:19:40.778Z,16.83
2022-11-02T10:22:13.116Z,16.86
2022-11-02T10:24:43.785Z,16.90
2022-11-02T10:27:26.523Z,17.00
2022-11-02T10:30:13.360Z,17.11
2022-11-02T10:35:34.011Z,17.22
2022-11-02T10:38:20.467Z,17.32
2022-11-02T10:41:02.820Z,17.50
2022-11-02T10:43:38.207Z,17.59
2022-11-02T10:46:12.048Z,17.76
2022-11-02T10:48:54.376Z,17.87
2022-11-02T10:51:22.135Z,17.81
2022-11-02T10:53:51.034Z,17.76
2022-11-02T10:56:20.446Z,17.82
2022-11-02T10:58:50.782Z,17.95
2022-11-02T11:01:17.571Z,18.04
2022-11-02T11:04:00.083Z,18.24
2022-11-02T11:06:30.776Z,18.43
2022-11-02T11:09:01.109Z,18.63
2022-11-02T11:11:33.549Z,18.80
2022-11-02T11:19:54.393Z,18.92
2022-11-02T11:22:25.790Z,18.94
2022-11-02T11:24:53.279Z,19.00
2022-11-02T11:27:22.771Z,19.03
2022-11-02T11:29:54.869Z,19.09
2022-11-02T11:32:30.580Z,19.19
2022-11-02T11:35:00.976Z,19.23
2022-11-02T11:37:28.148Z,19.27
2022-11-02T11:40:06.786Z,19.37
2022-11-02T11:42:36.631Z,19.52
2022-11-02T11:45:06.009Z,19.55
2022-11-02T11:47:37.858Z,19.51
2022-11-02T11:50:18.711Z,19.71
2022-11-02T11:53:09.377Z,19.78
2022-11-02T11:55:45.726Z,19.49
2022-11-02T11:58:19.045Z,19.38
2022-11-02T12:00:45.935Z,19.44
2022-11-02T12:03:14.196Z,19.59
2022-11-02T12:06:11.858Z,19.86
2022-11-02T12:08:46.959Z,20.18
2022-11-02T12:11:23.397Z,20.38
2022-11-02T12:14:05.484Z,20.74
2022-11-02T12:16:52.721Z,21.24
2022-11-02T12:19:33.848Z,21.68
2022-11-02T12:22:17.606Z,22.06
2022-11-02T12:24:56.553Z,22.40
2022-11-02T12:27:41.741Z,22.70
2022-11-02T12:30:20.222Z,22.93
2022-11-02T12:32:46.927Z,22.97
2022-11-02T12:35:45.103Z,22.63
2022-11-02T12:38:43.174Z,22.31
2022-11-02T12:41:14.796Z,21.97
2022-11-02T12:43:46.877Z,21.64
2022-11-02T12:49:04.670Z,21.83
2022-11-02T12:51:42.763Z,21.80
2022-11-02T12:54:12.055Z,21.97
2022-11-02T12:56:47.691Z,22.21
2022-11-02T12:59:18.472Z,22.39
2022-11-02T13:01:47.663Z,22.65
2022-11-02T13:04:32.950Z,22.56
2022-11-02T13:07:11.218Z,22.63
2022-11-02T13:09:53.782Z,22.82
2022-11-02T13:12:24.395Z,23.04
2022-11-02T13:14:55.635Z,22.75
2022-11-02T13:17:27.522Z,22.68
2022-11-02T13:19:58.076Z,22.80
2022-11-02T13:22:33.477Z,22.78
2022-11-02T13:25:15.215Z,22.44
2022-11-02T13:27:53.708Z,21.97
2022-11-02T13:30:21.272Z,21.90
2022-11-02T13:32:58.879Z,21.64
2022-11-02T13:35:34.929Z,21.37
2022-11-02T13:38:32.456Z,20.94
2022-11-02T13:41:31.148Z,20.33
2022-11-02T13:44:05.261Z,19.89
2022-11-02T13:47:03.289Z,19.61
2022-11-02T13:49:35.646Z,19.50
2022-11-02T13:52:09.508Z,19.20
2022-11-02T13:54:43.989Z,18.86
2022-11-02T13:57:32.697Z,18.65
2022-11-02T14:00:02.416Z,18.41
2022-11-02T14:02:36.376Z,18.17
2022-11-02T14:05:03.466Z,18.10
2022-11-02T14:07:35.523Z,18.23
2022-11-02T14:10:14.230Z,18.34
2022-11-02T14:12:49.476Z,18.12
2022-11-02T14:15:16.202Z,17.87
2022-11-02T14:18:07.994Z,17.64
2022-11-02T14:20:42.093Z,17.59
2022-11-02T14:23:10.164Z,17.47
2022-11-02T14:25:54.318Z,17.25
2022-11-02T14:28:21.107Z,17.00
2022-11-02T14:30:49.561Z,16.79
2022-11-02T14:33:45.353Z,16.59
2022-11-02T14:36:19.722Z,16.35
2022-11-02T14:41:42.768Z,15.97
2022-11-02T14:44:30.529Z,15.76
2022-11-02T14:47:14.431Z,15.57
2022-11-02T14:50:01.170Z,15.40
2022-11-02T14:52:32.138Z,15.21
2022-11-02T14:55:02.882Z,15.04
2022-11-02T14:57:34.984Z,14.89
2022-11-02T15:00:16.851Z,14.75
2022-11-02T15:02:44.666Z,14.62
2022-11-02T15:05:29.696Z,14.49
2022-11-02T15:07:59.917Z,14.18
2022-11-02T15:10:44.746Z,13.84
2022-11-02T15:13:18.866Z,13.57
2022-11-02T15:16:12.965Z,13.39
2022-11-02T15:18:40.652Z,13.19
2022-11-02T15:21:11.068Z,13.03
2022-11-02T15:23:52.035Z,12.91
2022-11-02T15:26:42.288Z,12.86
2022-11-02T15:29:20.906Z,12.92
2022-11-02T15:31:56.049Z,12.99
2022-11-02T15:34:33.355Z,13.05
2022-11-02T15:37:00.872Z,13.07
2022-11-02T15:39:27.817Z,13.07
2022-11-02T15:42:04.015Z,13.10
2022-11-02T15:44:38.912Z,13.13
2022-11-02T15:47:14.852Z,13.17
2022-11-02T15:50:12.407Z,13.20
2022-11-02T15:52:50.725Z,13.22
2022-11-02T15:55:56.801Z,13.23
2022-11-02T15:58:54.288Z,13.23
2022-11-02T16:01:22.515Z,13.22
2022-11-02T16:03:58.473Z,13.20
2022-11-02T16:06:44.641Z,13.19
2022-11-02T16:09:32.130Z,13.19
2022-11-02T16:12:17.129Z,13.20
2022-11-02T16:14:44.821Z,13.24
2022-11-02T16:17:27.123Z,13.26
2022-11-02T16:20:09.522Z,13.29
2022-11-02T16:22:37.167Z,13.31
2022-11-02T16:25:17.101Z,13.33
2022-11-02T16:27:43.778Z,13.35
2022-11-02T16:30:19.675Z,13.38
2022-11-02T16:32:51.041Z,13.37
2022-11-02T16:35:19.816Z,13.34
2022-11-02T16:37:48.594Z,13.30
2022-11-02T16:40:19.447Z,13.25
2022-11-02T16:42:47.811Z,13.20
2022-11-02T16:45:33.281Z,13.17
2022-11-02T16:48:04.248Z,13.15
2022-11-02T16:50:31.247Z,13.12
2022-11-02T16:53:02.234Z,13.08
2022-11-02T16:55:36.382Z,13.01
2022-11-02T16:58:06.773Z,12.95
2022-11-02T17:00:34.401Z,12.90
2022-11-02T17:03:09.673Z,12.86
2022-11-02T17:05:41.760Z,12.82
2022-11-02T17:08:28.038Z,12.79
2022-11-02T17:10:57.671Z,12.74
2022-11-02T17:13:26.973Z,12.69
2022-11-02T17:15:56.972Z,12.63
2022-11-02T17:18:28.210Z,12.58
2022-11-02T17:21:28.718Z,12.50
2022-11-02T17:23:57.731Z,12.42
2022-11-02T17:26:26.147Z,12.35
2022-11-02T17:28:54.278Z,12.27
2022-11-02T17:31:23.781Z,12.22
2022-11-02T17:33:52.040Z,12.19
2022-11-02T17:36:19.172Z,12.15
2022-11-02T17:38:46.111Z,12.09
2022-11-02T17:41:31.458Z,12.02
2022-11-02T17:43:58.725Z,11.93
2022-11-02T17:46:25.402Z,11.86
2022-11-02T17:48:52.081Z,11.81
2022-11-02T17:51:22.034Z,11.78
2022-11-02T17:53:49.981Z,11.73
2022-11-02T17:56:17.095Z,11.69
2022-11-02T17:58:43.752Z,11.65
2022-11-02T18:01:13.041Z,11.60
2022-11-02T18:03:40.099Z,11.54
2022-11-02T18:06:07.123Z,11.47
2022-11-02T18:08:54.729Z,11.40
2022-11-02T18:11:26.007Z,11.32
2022-11-02T18:13:53.878Z,11.28
2022-11-02T18:16:20.884Z,11.25
2022-11-02T18:18:47.676Z,11.21
2022-11-02T18:21:14.342Z,11.14
2022-11-02T18:23:41.740Z,11.05
2022-11-02T18:26:11.965Z,10.97
2022-11-02T18:28:39.139Z,10.87
2022-11-02T18:31:08.357Z,10.78
2022-11-02T18:33:35.406Z,10.69
2022-11-02T18:36:18.440Z,10.62
2022-11-02T18:38:45.448Z,10.57
2022-11-02T18:41:27.890Z,10.50
2022-11-02T18:44:00.679Z,10.43
2022-11-02T18:46:32.143Z,10.37
2022-11-02T18:48:59.583Z,10.29
2022-11-02T18:51:27.006Z,10.21
2022-11-02T18:53:56.101Z,10.11
2022-11-02T18:56:23.298Z,10.00
2022-11-02T18:58:51.603Z,9.93
2022-11-02T19:01:20.026Z,9.87
2022-11-02T19:04:02.183Z,9.81
2022-11-02T19:06:46.751Z,9.74
2022-11-02T19:09:18.284Z,9.66
2022-11-02T19:11:47.514Z,9.58
2022-11-02T19:14:14.405Z,9.47
2022-11-02T19:16:41.989Z,9.36
2022-11-02T19:19:08.803Z,9.25
2022-11-02T19:21:35.478Z,9.15
2022-11-02T19:24:04.603Z,9.07
2022-11-02T19:26:31.562Z,9.03
2022-11-02T19:29:02.907Z,9.00
2022-11-02T19:31:33.322Z,8.99
2022-11-02T19:34:00.117Z,8.97
2022-11-02T19:36:27.695Z,8.97
2022-11-02T19:38:54.376Z,8.99
2022-11-02T19:41:21.866Z,9.00
2022-11-02T19:43:48.534Z,9.03
2022-11-02T19:46:17.833Z,9.06
2022-11-02T19:48:45.069Z,9.09
2022-11-02T19:51:17.509Z,9.12
2022-11-02T19:53:50.927Z,9.15
2022-11-02T19:56:19.398Z,9.15
2022-11-02T19:58:49.109Z,9.17
2022-11-02T20:01:27.134Z,9.20
2022-11-02T20:03:55.339Z,9.26
2022-11-02T20:06:22.138Z,9.34
2022-11-02T20:08:51.066Z,9.40
2022-11-02T20:11:18.873Z,9.45
2022-11-02T20:13:47.143Z,9.51
2022-11-02T20:16:16.381Z,9.56
2022-11-02T20:18:44.838Z,9.59
2022-11-02T20:21:15.105Z,9.61
2022-11-02T20:23:43.095Z,9.65
2022-11-02T20:26:13.093Z,9.70
2022-11-02T20:28:43.102Z,9.77
2022-11-02T20:31:12.375Z,9.83
2022-11-02T20:33:40.714Z,9.87
2022-11-02T20:36:08.633Z,9.90
2022-11-02T20:38:36.185Z,9.92
2022-11-02T20:41:08.011Z,9.92
2022-11-02T20:43:36.361Z,9.89
2022-11-02T20:46:31.518Z,9.86
2022-11-02T20:48:53.231Z,9.82
2022-11-02T20:51:21.690Z,9.80
2022-11-02T20:53:49.474Z,9.80
2022-11-02T20:56:17.870Z,9.80
2022-11-02T20:58:48.957Z,9.76
2022-11-02T21:01:19.663Z,9.76
2022-11-02T21:03:46.505Z,9.74
2022-11-02T21:06:13.263Z,9.69
2022-11-02T21:08:40.563Z,9.66
2022-11-02T21:11:27.188Z,9.67
2022-11-02T21:13:53.885Z,9.69
2022-11-02T21:16:21.004Z,9.71
2022-11-02T21:18:48.030Z,9.72
2022-11-02T21:21:20.398Z,9.71
2022-11-02T21:23:47.410Z,9.70
2022-11-02T21:26:15.486Z,9.65
2022-11-02T21:28:44.836Z,9.56
2022-11-02T21:31:16.661Z,9.44
2022-11-02T21:33:45.783Z,9.33
2022-11-02T21:36:13.818Z,9.24
2022-11-02T21:38:41.028Z,9.19
2022-11-02T21:41:09.086Z,9.16
2022-11-02T21:43:37.485Z,9.10
2022-11-02T21:46:06.106Z,9.03
2022-11-02T21:48:34.933Z,8.98
2022-11-02T21:51:03.954Z,8.91
2022-11-02T21:53:32.578Z,8.82
2022-11-02T21:56:01.642Z,8.76
2022-11-02T21:58:28.545Z,8.72
2022-11-02T22:01:13.694Z,8.67
2022-11-02T22:03:40.436Z,8.59
2022-11-02T22:06:07.616Z,8.53
2022-11-02T22:08:41.587Z,8.48
2022-11-02T22:11:09.539Z,8.39
2022-11-02T22:13:37.164Z,8.31
2022-11-02T22:16:10.551Z,8.23
2022-11-02T22:18:37.312Z,8.15
2022-11-02T22:21:04.683Z,8.07
2022-11-02T22:23:31.706Z,8.03
2022-11-02T22:26:02.560Z,8.00
2022-11-02T22:28:31.928Z,7.95
2022-11-02T22:30:59.166Z,7.88
2022-11-02T22:33:26.388Z,7.77
2022-11-02T22:35:53.320Z,7.65
2022-11-02T22:38:35.712Z,7.54
2022-11-02T22:41:03.332Z,7.42
2022-11-02T22:43:30.109Z,7.36
2022-11-02T22:46:03.076Z,7.26
2022-11-02T22:48:30.203Z,7.17
2022-11-02T22:50:57.089Z,7.13
2022-11-02T22:53:26.022Z,7.06
2022-11-02T22:56:00.005Z,6.98
2022-11-02T22:58:27.969Z,6.92
2022-11-02T23:00:55.438Z,6.86
2022-11-02T23:03:22.342Z,6.83
2022-11-02T23:05:49.163Z,6.84
2022-11-02T23:08:16.012Z,6.84
2022-11-02T23:10:58.334Z,6.84
2022-11-02T23:13:25.936Z,6.85
2022-11-02T23:15:52.883Z,6.85
2022-11-02T23:18:39.686Z,6.86
2022-11-02T23:21:06.366Z,6.91
2022-11-02T23:23:48.988Z,6.96
2022-11-02T23:26:15.646Z,7.02
2022-11-02T23:28:58.180Z,7.09
2022-11-02T23:31:40.543Z,7.15
2022-11-02T23:34:07.222Z,7.20
2022-11-02T23:36:33.896Z,7.25
2022-11-02T23:39:16.000Z,7.31
2022-11-02T23:41:42.706Z,7.36
2022-11-02T23:44:13.856Z,7.40
2022-11-02T23:46:42.577Z,7.41
2022-11-02T23:49:10.335Z,7.40
2022-11-02T23:51:52.678Z,7.38
2022-11-02T23:54:34.885Z,7.35
2022-11-02T23:57:02.067Z,7.30
2022-11-02T23:59:29.385Z,7.24
